createdAt,value
2022-10-10T00:03:12.232Z,0.00
2022-10-10T00:08:38.881Z,0.00
2022-10-10T00:13:31.283Z,0.00
2022-10-10T00:18:31.237Z,0.00
2022-10-10T00:23:31.141Z,0.00
2022-10-10T00:28:31.146Z,0.00
2022-10-10T00:33:31.030Z,0.00
2022-10-10T00:38:30.939Z,0.00
2022-10-10T00:43:30.898Z,0.00
2022-10-10T00:48:30.815Z,0.00
2022-10-10T00:53:30.770Z,0.00
2022-10-10T00:58:30.682Z,0.00
2022-10-10T01:03:30.623Z,0.00
2022-10-10T01:08:30.638Z,0.00
2022-10-10T01:13:30.471Z,0.00
2022-10-10T01:18:30.407Z,0.00
2022-10-10T01:23:30.359Z,0.00
2022-10-10T01:28:30.314Z,0.00
2022-10-10T01:33:30.213Z,0.00
2022-10-10T01:38:30.147Z,0.00
2022-10-10T01:43:30.081Z,0.00
2022-10-10T01:48:30.028Z,0.00
2022-10-10T01:53:29.950Z,0.00
2022-10-10T01:58:29.883Z,0.00
2022-10-10T02:03:29.833Z,0.00
2022-10-10T02:08:29.759Z,0.00
2022-10-10T02:13:29.671Z,0.00
2022-10-10T02:18:29.610Z,0.00
2022-10-10T02:23:29.548Z,0.00
2022-10-10T02:28:29.515Z,0.00
2022-10-10T02:33:29.419Z,0.00
2022-10-10T02:38:29.352Z,0.00
2022-10-10T02:43:29.290Z,0.00
2022-10-10T02:48:29.203Z,0.00
2022-10-10T02:53:29.140Z,0.00
2022-10-10T02:58:29.072Z,0.00
2022-10-10T03:03:29.034Z,0.00
2022-10-10T03:08:28.941Z,0.00
2022-10-10T03:13:28.902Z,0.00
2022-10-10T03:18:28.819Z,0.00
2022-10-10T03:23:28.752Z,0.00
2022-10-10T03:28:28.670Z,0.00
2022-10-10T03:33:28.618Z,0.00
2022-10-10T03:38:28.549Z,0.00
2022-10-10T03:43:28.475Z,0.00
2022-10-10T03:48:28.415Z,0.00
2022-10-10T03:53:28.331Z,0.00
2022-10-10T03:58:28.260Z,0.00
2022-10-10T04:03:28.194Z,0.00
2022-10-10T04:08:28.134Z,0.00
2022-10-10T04:13:28.058Z,0.00
2022-10-10T04:18:37.582Z,0.00
2022-10-10T04:23:29.990Z,0.00
2022-10-10T04:28:29.978Z,0.00
2022-10-10T04:33:29.898Z,0.00
2022-10-10T04:38:29.790Z,0.00
2022-10-10T04:43:29.743Z,0.00
2022-10-10T04:48:29.684Z,0.00
2022-10-10T04:53:29.590Z,0.00
2022-10-10T04:58:29.807Z,0.00
2022-10-10T05:03:29.457Z,0.00
2022-10-10T05:08:29.386Z,0.00
2022-10-10T05:13:29.335Z,0.00
2022-10-10T05:18:29.469Z,0.00
2022-10-10T05:23:29.162Z,4.00
2022-10-10T05:28:29.210Z,16.00
2022-10-10T05:33:29.130Z,32.00
2022-10-10T05:38:29.139Z,64.00
2022-10-10T05:43:28.932Z,108.00
2022-10-10T05:48:28.861Z,168.00
2022-10-10T05:53:28.791Z,244.00
2022-10-10T05:58:28.737Z,336.00
2022-10-10T06:03:28.657Z,440.00
2022-10-10T06:08:28.569Z,564.00
2022-10-10T06:13:28.513Z,700.00
2022-10-10T06:18:28.445Z,836.00
2022-10-10T06:23:28.375Z,984.00
2022-10-10T06:28:28.362Z,1124.00
2022-10-10T06:33:29.078Z,1272.00
2022-10-10T06:38:28.184Z,1432.00
2022-10-10T06:43:28.085Z,1620.00
2022-10-10T06:48:28.051Z,1876.00
2022-10-10T06:53:27.983Z,2816.00
2022-10-10T06:58:27.937Z,4880.00
2022-10-10T07:03:27.908Z,5776.00
2022-10-10T07:08:27.773Z,6712.00
2022-10-10T07:13:27.676Z,7608.00
2022-10-10T07:18:27.657Z,8536.00
2022-10-10T07:23:27.563Z,9536.00
2022-10-10T07:28:27.523Z,10648.00
2022-10-10T07:33:27.432Z,12320.00
2022-10-10T07:38:27.389Z,13920.00
2022-10-10T07:43:27.316Z,15648.00
2022-10-10T07:48:27.224Z,18624.00
2022-10-10T07:53:27.137Z,17664.00
2022-10-10T07:58:27.220Z,17248.00
2022-10-10T08:03:27.034Z,13440.00
2022-10-10T08:08:26.960Z,11452.00
2022-10-10T08:13:26.891Z,10836.00
2022-10-10T08:18:26.832Z,10468.00
2022-10-10T08:23:26.755Z,10252.00
2022-10-10T08:28:26.745Z,10236.00
2022-10-10T08:33:26.613Z,10336.00
2022-10-10T08:38:26.569Z,10676.00
2022-10-10T08:43:26.484Z,11192.00
2022-10-10T08:48:26.427Z,11480.00
2022-10-10T08:53:26.349Z,11744.00
2022-10-10T08:58:26.295Z,12620.00
2022-10-10T09:03:26.219Z,13504.00
2022-10-10T09:08:26.985Z,14208.00
2022-10-10T09:13:26.110Z,18368.00
2022-10-10T09:18:26.026Z,24832.00
2022-10-10T09:23:25.948Z,41056.00
2022-10-10T09:28:25.961Z,33792.00
2022-10-10T09:33:25.822Z,36768.00
2022-10-10T09:38:25.751Z,39328.00
2022-10-10T09:43:25.672Z,54912.00
2022-10-10T09:48:25.627Z,34720.00
2022-10-10T09:53:25.565Z,26880.00
2022-10-10T09:58:25.489Z,33984.00
2022-10-10T10:03:25.423Z,31296.00
2022-10-10T10:08:25.362Z,36448.00
2022-10-10T10:13:25.315Z,54048.00
2022-10-10T10:18:25.612Z,55456.00
2022-10-10T10:23:25.191Z,39040.00
2022-10-10T10:28:25.170Z,33760.00
2022-10-10T10:33:25.021Z,37088.00
2022-10-10T10:38:24.960Z,48192.00
2022-10-10T10:43:24.885Z,43136.00
2022-10-10T10:48:24.847Z,25600.00
2022-10-10T10:53:24.746Z,25472.00
2022-10-10T11:05:15.977Z,35136.00
2022-10-10T11:08:25.623Z,23520.00
2022-10-10T11:13:24.488Z,21024.00
2022-10-10T11:18:24.426Z,26624.00
2022-10-10T11:23:24.374Z,22848.00
2022-10-10T11:28:24.361Z,17856.00
2022-10-10T11:33:24.224Z,11916.00
2022-10-10T11:38:24.149Z,15456.00
2022-10-10T11:43:24.090Z,14720.00
2022-10-10T11:48:24.027Z,16768.00
2022-10-10T11:53:23.954Z,10436.00
2022-10-10T11:58:23.890Z,19296.00
2022-10-10T12:03:23.905Z,6680.00
2022-10-10T12:08:23.775Z,6256.00
2022-10-10T12:13:23.696Z,10476.00
2022-10-10T12:18:23.623Z,8300.00
2022-10-10T12:23:23.632Z,8656.00
2022-10-10T12:28:23.531Z,7920.00
2022-10-10T12:33:23.474Z,7004.00
2022-10-10T12:38:23.379Z,6096.00
2022-10-10T12:43:23.297Z,5784.00
2022-10-10T12:48:23.225Z,4868.00
2022-10-10T12:53:23.207Z,5264.00
2022-10-10T12:58:27.221Z,4124.00
2022-10-10T13:03:23.037Z,4928.00
2022-10-10T13:08:22.983Z,4468.00
2022-10-10T13:13:22.964Z,4176.00
2022-10-10T13:18:22.830Z,3764.00
2022-10-10T13:23:22.760Z,2856.00
2022-10-10T13:28:22.715Z,3592.00
2022-10-10T13:33:22.646Z,4172.00
2022-10-10T13:38:22.566Z,4248.00
2022-10-10T13:43:22.505Z,3100.00
2022-10-10T13:48:22.497Z,3036.00
2022-10-10T13:53:22.372Z,3056.00
2022-10-10T13:58:22.318Z,2748.00
2022-10-10T14:03:22.215Z,2476.00
2022-10-10T14:08:22.155Z,2664.00
2022-10-10T14:13:22.107Z,3132.00
2022-10-10T14:18:22.009Z,2908.00
2022-10-10T14:23:21.950Z,2768.00
2022-10-10T14:28:23.425Z,2612.00
2022-10-10T14:33:21.816Z,2512.00
2022-10-10T14:38:21.747Z,2540.00
2022-10-10T14:43:21.665Z,2956.00
2022-10-10T14:48:21.610Z,2480.00
2022-10-10T14:53:21.523Z,2780.00
2022-10-10T14:58:21.467Z,2408.00
2022-10-10T15:03:21.470Z,2468.00
2022-10-10T15:08:21.360Z,1948.00
2022-10-10T15:13:21.307Z,1468.00
2022-10-10T15:18:52.669Z,1364.00
2022-10-10T15:23:22.129Z,1164.00
2022-10-10T15:28:21.074Z,1100.00
2022-10-10T15:33:20.993Z,1280.00
2022-10-10T15:38:20.947Z,1068.00
2022-10-10T15:43:20.888Z,728.00
2022-10-10T15:48:21.325Z,632.00
2022-10-10T15:53:20.743Z,576.00
2022-10-10T15:58:20.657Z,352.00
2022-10-10T16:03:20.585Z,204.00
2022-10-10T16:08:20.530Z,136.00
2022-10-10T16:13:20.505Z,108.00
2022-10-10T16:18:20.394Z,68.00
2022-10-10T16:23:20.324Z,32.00
2022-10-10T16:28:20.322Z,44.00
2022-10-10T16:33:20.164Z,36.00
2022-10-10T16:38:20.117Z,44.00
2022-10-10T16:43:20.051Z,40.00
2022-10-10T16:48:19.994Z,20.00
2022-10-10T16:53:19.900Z,8.00
2022-10-10T16:58:19.888Z,8.00
2022-10-10T17:03:19.774Z,4.00
2022-10-10T17:08:19.715Z,0.00
2022-10-10T17:13:19.666Z,0.00
2022-10-10T17:18:19.554Z,0.00
2022-10-10T17:23:19.521Z,0.00
2022-10-10T17:28:19.468Z,0.00
2022-10-10T17:33:19.406Z,0.00
2022-10-10T17:38:38.455Z,0.00
2022-10-10T17:43:20.249Z,0.00
2022-10-10T17:48:19.185Z,0.00
2022-10-10T17:53:19.094Z,0.00
2022-10-10T17:58:19.023Z,0.00
2022-10-10T18:03:18.953Z,0.00
2022-10-10T18:08:18.904Z,0.00
2022-10-10T18:13:18.841Z,0.00
2022-10-10T18:18:18.746Z,0.00
2022-10-10T18:23:18.699Z,0.00
2022-10-10T18:28:18.664Z,0.00
2022-10-10T18:33:18.571Z,0.00
2022-10-10T18:38:18.486Z,0.00
2022-10-10T18:43:18.438Z,0.00
2022-10-10T18:48:18.363Z,0.00
2022-10-10T18:53:18.305Z,0.00
2022-10-10T18:58:18.226Z,0.00
2022-10-10T19:03:18.163Z,0.00
2022-10-10T19:08:18.079Z,0.00
2022-10-10T19:13:18.031Z,0.00
2022-10-10T19:18:17.953Z,0.00
2022-10-10T19:23:17.882Z,0.00
2022-10-10T19:28:17.867Z,0.00
2022-10-10T19:33:17.733Z,0.00
2022-10-10T19:38:17.748Z,0.00
2022-10-10T19:43:17.606Z,0.00
2022-10-10T19:48:17.551Z,0.00
2022-10-10T19:53:17.475Z,0.00
2022-10-10T19:58:17.404Z,0.00
2022-10-10T20:03:17.342Z,0.00
2022-10-10T20:08:17.291Z,0.00
2022-10-10T20:13:17.215Z,0.00
2022-10-10T20:18:17.152Z,0.00
2022-10-10T20:23:17.172Z,0.00
2022-10-10T20:28:17.056Z,0.00
2022-10-10T20:33:16.979Z,0.00
2022-10-10T20:38:17.015Z,0.00
2022-10-10T20:43:16.797Z,0.00
2022-10-10T20:48:16.726Z,0.00
2022-10-10T20:53:16.659Z,0.00
2022-10-10T20:58:16.601Z,0.00
2022-10-10T21:03:16.539Z,0.00
2022-10-10T21:08:16.450Z,0.00
2022-10-10T21:13:16.388Z,0.00
2022-10-10T21:18:16.310Z,0.00
2022-10-10T21:23:16.295Z,0.00
2022-10-10T21:28:16.289Z,0.00
2022-10-10T21:33:16.125Z,0.00
2022-10-10T21:38:16.046Z,0.00
2022-10-10T21:43:16.000Z,0.00
2022-10-10T21:48:15.908Z,0.00
2022-10-10T21:53:15.872Z,0.00
2022-10-10T21:58:15.782Z,0.00
2022-10-10T22:03:15.711Z,0.00
2022-10-10T22:08:15.655Z,0.00
2022-10-10T22:13:15.575Z,0.00
2022-10-10T22:18:15.518Z,0.00
2022-10-10T22:23:15.461Z,0.00
2022-10-10T22:28:15.441Z,0.00
2022-10-10T22:33:15.419Z,0.00
2022-10-10T22:38:15.226Z,0.00
2022-10-10T22:43:15.174Z,0.00
2022-10-10T22:48:15.108Z,0.00
2022-10-10T22:53:15.036Z,0.00
2022-10-10T22:58:14.948Z,0.00
2022-10-10T23:03:14.922Z,0.00
2022-10-10T23:08:14.836Z,0.00
2022-10-10T23:13:14.765Z,0.00
2022-10-10T23:18:14.702Z,0.00
2022-10-10T23:23:14.634Z,0.00
2022-10-10T23:28:14.643Z,0.00
2022-10-10T23:33:14.526Z,0.00
2022-10-10T23:38:14.422Z,0.00
2022-10-10T23:43:14.373Z,0.00
2022-10-10T23:48:14.306Z,0.00
2022-10-10T23:53:14.205Z,0.00
2022-10-10T23:58:14.169Z,0.00
